createdAt,value
2017-08-12T00:00:31.595Z,4.10
2017-08-12T00:02:59.068Z,4.60
2017-08-12T00:05:26.534Z,4.63
2017-08-12T00:07:54.012Z,4.63
2017-08-12T00:10:21.475Z,5.27
2017-08-12T00:12:48.963Z,4.73
2017-08-12T00:15:16.430Z,5.00
2017-08-12T00:17:43.908Z,5.13
2017-08-12T00:20:11.386Z,5.40
2017-08-12T00:22:39.658Z,4.73
2017-08-12T00:25:08.932Z,4.53
2017-08-12T00:27:36.418Z,4.67
2017-08-12T00:30:03.888Z,5.03
2017-08-12T00:32:32.135Z,4.10
2017-08-12T00:34:59.601Z,2.83
2017-08-12T00:37:27.079Z,3.30
2017-08-12T00:39:55.324Z,2.70
2017-08-12T00:42:22.796Z,2.73
2017-08-12T00:44:50.264Z,2.90
2017-08-12T00:47:18.513Z,2.37
2017-08-12T00:49:45.978Z,3.20
2017-08-12T00:52:13.468Z,2.87
2017-08-12T00:54:41.703Z,3.80
2017-08-12T00:57:09.192Z,3.97
2017-08-12T00:59:37.428Z,4.70
2017-08-12T01:02:04.919Z,4.70
2017-08-12T01:04:32.384Z,5.03
2017-08-12T01:07:00.634Z,4.37
2017-08-12T01:09:28.099Z,3.63
2017-08-12T01:11:55.568Z,5.30
2017-08-12T01:14:23.031Z,3.97
2017-08-12T01:16:50.502Z,4.03
2017-08-12T01:19:18.756Z,3.97
2017-08-12T01:21:46.225Z,5.00
2017-08-12T01:24:13.717Z,4.47
2017-08-12T01:26:41.188Z,5.33
2017-08-12T01:29:08.664Z,5.27
2017-08-12T01:31:36.156Z,6.27
2017-08-12T01:34:03.634Z,5.50
2017-08-12T01:36:31.109Z,5.57
2017-08-12T01:38:58.582Z,5.03
2017-08-12T01:41:26.040Z,5.57
2017-08-12T01:43:53.524Z,5.30
2017-08-12T01:46:21.280Z,5.30
2017-08-12T01:48:48.752Z,5.43
2017-08-12T01:51:16.221Z,4.40
2017-08-12T01:53:43.696Z,4.80
2017-08-12T01:56:12.689Z,4.40
2017-08-12T01:58:40.160Z,4.43
2017-08-12T02:01:07.647Z,3.57
2017-08-12T02:03:35.124Z,3.40
2017-08-12T02:06:02.598Z,3.90
2017-08-12T02:08:30.064Z,3.90
2017-08-12T02:10:57.528Z,4.07
2017-08-12T02:13:24.996Z,4.40
2017-08-12T02:15:52.464Z,3.67
2017-08-12T02:18:20.704Z,3.57
2017-08-12T02:20:48.168Z,4.20
2017-08-12T02:23:15.640Z,3.90
2017-08-12T02:25:43.103Z,3.90
2017-08-12T02:28:10.584Z,3.03
2017-08-12T02:30:38.806Z,3.17
2017-08-12T02:33:06.285Z,2.90
2017-08-12T02:35:33.740Z,3.57
2017-08-12T02:38:01.216Z,2.53
2017-08-12T02:40:29.460Z,2.70
2017-08-12T02:42:56.925Z,3.03
2017-08-12T02:45:24.389Z,2.40
2017-08-12T02:47:51.862Z,2.90
2017-08-12T02:50:19.339Z,2.70
2017-08-12T02:52:47.579Z,3.00
2017-08-12T02:55:15.054Z,2.90
2017-08-12T02:57:42.518Z,3.00
2017-08-12T03:00:10.765Z,3.10
2017-08-12T03:02:38.227Z,3.03
2017-08-12T03:05:05.693Z,2.80
2017-08-12T03:07:33.164Z,2.90
2017-08-12T03:10:00.635Z,2.20
2017-08-12T03:12:28.863Z,3.00
2017-08-12T03:14:56.348Z,3.30
2017-08-12T03:17:23.812Z,2.70
2017-08-12T03:19:51.275Z,2.37
2017-08-12T03:22:18.740Z,2.87
2017-08-12T03:24:46.984Z,3.10
2017-08-12T03:27:14.450Z,2.87
2017-08-12T03:29:41.928Z,2.23
2017-08-12T03:32:09.384Z,2.60
2017-08-12T03:34:36.867Z,2.60
2017-08-12T03:37:04.327Z,3.00
2017-08-12T03:39:31.809Z,2.90
2017-08-12T03:41:59.269Z,3.03
2017-08-12T03:44:26.736Z,3.07
2017-08-12T03:46:54.208Z,2.83
2017-08-12T03:49:21.671Z,2.83
2017-08-12T03:51:49.144Z,2.80
2017-08-12T03:54:16.607Z,3.47
2017-08-12T03:56:44.856Z,2.43
2017-08-12T03:59:12.323Z,3.30
2017-08-12T04:01:39.789Z,2.70
2017-08-12T04:04:07.243Z,3.03
2017-08-12T04:06:34.707Z,3.30
2017-08-12T04:09:02.180Z,3.00
2017-08-12T04:11:30.922Z,3.10
2017-08-12T04:13:58.388Z,3.30
2017-08-12T04:16:25.861Z,3.60
2017-08-12T04:18:53.355Z,3.33
2017-08-12T04:21:20.864Z,2.87
2017-08-12T04:23:48.331Z,3.20
2017-08-12T04:26:15.813Z,3.20
2017-08-12T04:28:43.275Z,3.00
2017-08-12T04:31:11.517Z,4.00
2017-08-12T04:33:38.980Z,3.50
2017-08-12T04:36:06.455Z,3.23
2017-08-12T04:38:33.916Z,3.23
2017-08-12T04:41:01.384Z,3.87
2017-08-12T04:43:29.616Z,3.97
2017-08-12T04:45:57.108Z,3.40
2017-08-12T04:48:24.572Z,5.27
2017-08-12T04:50:52.035Z,4.03
2017-08-12T04:53:20.276Z,3.97
2017-08-12T04:55:47.744Z,3.40
2017-08-12T04:58:15.208Z,3.67
2017-08-12T05:00:42.672Z,3.63
2017-08-12T05:03:10.146Z,3.90
2017-08-12T05:05:38.388Z,3.40
2017-08-12T05:08:05.851Z,3.10
2017-08-12T05:10:33.316Z,3.43
2017-08-12T05:13:00.782Z,3.10
2017-08-12T05:15:28.244Z,3.50
2017-08-12T05:17:55.717Z,3.97
2017-08-12T05:20:23.949Z,3.30
2017-08-12T05:22:51.415Z,3.73
2017-08-12T05:25:18.879Z,4.23
2017-08-12T05:27:46.361Z,3.70
2017-08-12T05:30:14.596Z,4.00
2017-08-12T05:32:42.069Z,3.17
2017-08-12T05:35:09.532Z,3.90
2017-08-12T05:37:37.026Z,3.53
2017-08-12T05:40:05.313Z,3.63
2017-08-12T05:42:32.785Z,3.60
2017-08-12T05:45:00.262Z,2.93
2017-08-12T05:47:27.733Z,3.60
2017-08-12T05:49:55.201Z,3.70
2017-08-12T05:52:22.666Z,2.90
2017-08-12T05:54:50.118Z,2.73
2017-08-12T05:57:17.591Z,2.83
2017-08-12T05:59:45.832Z,3.00
2017-08-12T06:02:13.297Z,2.40
2017-08-12T06:04:40.777Z,2.90
2017-08-12T06:07:08.237Z,3.10
2017-08-12T06:09:36.492Z,2.70
2017-08-12T06:12:03.964Z,3.00
2017-08-12T06:14:31.427Z,2.90
2017-08-12T06:16:58.896Z,2.90
2017-08-12T06:19:27.130Z,3.60
2017-08-12T06:21:54.586Z,2.70
2017-08-12T06:24:22.060Z,3.30
2017-08-12T06:26:49.520Z,2.43
2017-08-12T06:29:16.992Z,2.73
2017-08-12T06:31:44.463Z,2.70
2017-08-12T06:34:12.693Z,3.10
2017-08-12T06:36:40.167Z,2.73
2017-08-12T06:39:07.860Z,2.77
2017-08-12T06:41:35.333Z,3.20
2017-08-12T06:44:02.807Z,3.10
2017-08-12T06:46:30.277Z,2.67
2017-08-12T06:48:58.626Z,3.40
2017-08-12T06:51:26.090Z,2.90
2017-08-12T06:53:55.127Z,2.60
2017-08-12T06:56:22.596Z,2.70
2017-08-12T06:58:50.163Z,2.90
2017-08-12T07:01:17.619Z,3.60
2017-08-12T07:03:45.096Z,3.30
2017-08-12T07:06:13.335Z,3.90
2017-08-12T07:08:40.803Z,2.73
2017-08-12T07:11:09.692Z,4.67
2017-08-12T07:13:37.185Z,3.20
2017-08-12T07:16:06.048Z,3.90
2017-08-12T07:18:33.508Z,4.47
2017-08-12T07:21:01.667Z,4.77
2017-08-12T07:23:29.131Z,4.23
2017-08-12T07:25:56.679Z,4.90
2017-08-12T07:28:24.155Z,4.30
2017-08-12T07:30:51.627Z,4.57
2017-08-12T07:33:19.085Z,5.27
2017-08-12T07:35:46.570Z,5.20
2017-08-12T07:38:14.038Z,4.73
2017-08-12T07:40:41.509Z,5.23
2017-08-12T07:43:08.977Z,4.80
2017-08-12T07:45:36.456Z,5.00
2017-08-12T07:48:03.926Z,4.57
2017-08-12T07:50:31.399Z,4.40
2017-08-12T07:52:58.860Z,5.00
2017-08-12T07:55:26.343Z,3.90
2017-08-12T07:57:53.940Z,4.57
2017-08-12T08:00:21.416Z,4.10
2017-08-12T08:02:48.875Z,4.70
2017-08-12T08:05:16.361Z,4.60
2017-08-12T08:07:44.595Z,4.40
2017-08-12T08:10:12.074Z,4.40
2017-08-12T08:12:39.556Z,4.27
2017-08-12T08:15:07.786Z,4.70
2017-08-12T08:17:35.251Z,4.70
2017-08-12T08:20:02.717Z,4.83
2017-08-12T08:22:30.189Z,6.37
2017-08-12T08:24:57.653Z,6.70
2017-08-12T08:27:25.129Z,7.70
2017-08-12T08:29:53.366Z,9.53
2017-08-12T08:32:20.839Z,7.77
2017-08-12T08:34:48.314Z,8.70
2017-08-12T08:37:16.564Z,11.87
2017-08-12T08:39:44.038Z,12.67
2017-08-12T08:45:04.545Z,15.50
2017-08-12T08:47:32.028Z,16.13
2017-08-12T08:50:00.266Z,19.27
2017-08-12T08:52:27.737Z,18.10
2017-08-12T08:54:55.211Z,18.97
2017-08-12T08:57:23.480Z,19.90
2017-08-12T08:59:50.947Z,16.33
2017-08-12T09:02:19.187Z,11.30
2017-08-12T09:04:46.650Z,11.03
2017-08-12T09:07:14.146Z,11.43
2017-08-12T09:09:42.388Z,12.00
2017-08-12T09:12:09.860Z,12.40
2017-08-12T09:14:37.337Z,11.73
2017-08-12T09:17:05.572Z,11.07
2017-08-12T09:19:33.040Z,9.73
2017-08-12T09:22:00.513Z,8.40
2017-08-12T09:24:27.984Z,8.07
2017-08-12T09:26:56.215Z,7.73
2017-08-12T09:29:23.679Z,6.70
2017-08-12T09:31:51.150Z,7.97
2017-08-12T09:34:18.625Z,7.77
2017-08-12T09:36:46.092Z,9.30
2017-08-12T09:39:14.337Z,8.50
2017-08-12T09:41:41.934Z,10.60
2017-08-12T09:44:10.170Z,10.07
2017-08-12T09:46:37.622Z,7.83
2017-08-12T09:49:05.097Z,8.17
2017-08-12T09:51:32.565Z,7.57
2017-08-12T09:54:00.040Z,7.67
2017-08-12T09:56:27.504Z,8.90
2017-08-12T09:58:55.750Z,6.97
2017-08-12T10:01:23.204Z,6.83
2017-08-12T10:03:50.667Z,6.70
2017-08-12T10:06:18.132Z,6.63
2017-08-12T10:08:45.602Z,5.70
2017-08-12T10:11:13.076Z,6.33
2017-08-12T10:13:40.556Z,7.37
2017-08-12T10:16:08.812Z,7.40
2017-08-12T10:18:36.276Z,7.43
2017-08-12T10:21:03.740Z,6.27
2017-08-12T10:23:31.962Z,6.90
2017-08-12T10:25:59.438Z,6.47
2017-08-12T10:28:26.908Z,6.90
2017-08-12T10:30:54.384Z,8.10
2017-08-12T10:33:21.845Z,7.20
2017-08-12T10:35:50.167Z,6.20
2017-08-12T10:38:17.831Z,6.63
2017-08-12T10:40:45.375Z,7.87
2017-08-12T10:43:12.834Z,7.93
2017-08-12T10:45:40.312Z,6.70
2017-08-12T10:48:07.778Z,6.30
2017-08-12T10:50:35.260Z,7.17
2017-08-12T10:53:02.731Z,7.23
2017-08-12T10:55:30.195Z,7.20
2017-08-12T10:57:57.656Z,6.80
2017-08-12T11:00:25.895Z,6.80
2017-08-12T11:02:53.366Z,6.40
2017-08-12T11:05:20.841Z,5.77
2017-08-12T11:07:48.305Z,5.50
2017-08-12T11:10:16.550Z,6.77
2017-08-12T11:12:44.012Z,5.13
2017-08-12T11:15:11.480Z,6.20
2017-08-12T11:17:38.959Z,6.03
2017-08-12T11:20:08.372Z,5.13
2017-08-12T11:22:35.888Z,5.53
2017-08-12T11:25:03.351Z,5.63
2017-08-12T11:27:30.827Z,5.73
2017-08-12T11:29:58.328Z,6.40
2017-08-12T11:32:25.813Z,5.30
2017-08-12T11:34:53.344Z,6.63
2017-08-12T11:37:20.832Z,5.50
2017-08-12T11:39:48.338Z,5.50
2017-08-12T11:42:16.575Z,6.33
2017-08-12T11:44:44.042Z,5.73
2017-08-12T11:47:11.516Z,6.47
2017-08-12T11:49:39.231Z,6.93
2017-08-12T11:52:06.696Z,6.40
2017-08-12T11:54:34.198Z,6.10
2017-08-12T11:57:02.450Z,5.50
2017-08-12T11:59:31.333Z,6.43
2017-08-12T12:01:58.908Z,6.43
2017-08-12T12:04:26.372Z,6.33
2017-08-12T12:06:53.835Z,5.67
2017-08-12T12:09:22.766Z,6.37
2017-08-12T12:11:50.244Z,5.43
2017-08-12T12:14:17.731Z,6.27
2017-08-12T12:16:45.187Z,6.10
2017-08-12T12:19:12.650Z,7.20
2017-08-12T12:21:40.389Z,6.77
2017-08-12T12:24:07.904Z,6.60
2017-08-12T12:26:36.140Z,6.40
2017-08-12T12:29:04.326Z,5.93
2017-08-12T12:31:33.526Z,4.80
2017-08-12T12:34:01.024Z,5.10
2017-08-12T12:36:29.261Z,5.73
2017-08-12T12:38:56.753Z,5.70
2017-08-12T12:41:24.980Z,5.20
2017-08-12T12:43:52.457Z,5.80
2017-08-12T12:46:20.110Z,4.67
2017-08-12T12:48:47.977Z,5.70
2017-08-12T12:51:15.577Z,4.83
2017-08-12T12:53:43.733Z,4.57
2017-08-12T12:56:11.285Z,4.97
2017-08-12T12:58:40.184Z,4.77
2017-08-12T13:01:08.429Z,4.60
2017-08-12T13:03:36.111Z,4.20
2017-08-12T13:06:03.595Z,4.27
2017-08-12T13:08:31.844Z,3.63
2017-08-12T13:10:59.325Z,4.90
2017-08-12T13:13:26.779Z,4.50
2017-08-12T13:15:55.381Z,3.83
2017-08-12T13:18:23.612Z,4.10
2017-08-12T13:20:51.097Z,4.00
2017-08-12T13:23:18.820Z,3.77
2017-08-12T13:25:47.835Z,4.50
2017-08-12T13:28:15.340Z,3.70
2017-08-12T13:30:42.983Z,3.87
2017-08-12T13:33:10.510Z,4.77
2017-08-12T13:35:38.077Z,4.20
2017-08-12T13:38:05.543Z,4.27
2017-08-12T13:40:33.020Z,4.10
2017-08-12T13:43:00.504Z,3.90
2017-08-12T13:45:27.959Z,3.10
2017-08-12T13:47:55.430Z,4.20
2017-08-12T13:50:23.150Z,3.70
2017-08-12T13:52:50.656Z,3.40
2017-08-12T13:55:18.134Z,3.33
2017-08-12T13:57:45.595Z,2.83
2017-08-12T14:00:13.977Z,2.83
2017-08-12T14:02:41.443Z,3.23
2017-08-12T14:05:09.013Z,3.10
2017-08-12T14:07:37.279Z,2.93
2017-08-12T14:10:04.736Z,3.03
2017-08-12T14:12:32.345Z,2.70
2017-08-12T14:15:00.585Z,3.47
2017-08-12T14:17:28.054Z,2.33
2017-08-12T14:19:55.529Z,2.70
2017-08-12T14:22:23.025Z,2.50
2017-08-12T14:24:50.505Z,1.77
2017-08-12T14:27:17.993Z,1.53
2017-08-12T14:29:45.560Z,2.03
2017-08-12T14:32:13.016Z,2.40
2017-08-12T14:34:40.487Z,2.00
2017-08-12T14:37:08.721Z,1.60
2017-08-12T14:39:36.191Z,2.10
2017-08-12T14:42:03.684Z,1.80
2017-08-12T14:44:31.176Z,1.30
2017-08-12T14:46:58.692Z,1.60
2017-08-12T14:49:26.161Z,1.40
2017-08-12T14:51:54.402Z,1.37
2017-08-12T14:54:21.876Z,1.47
2017-08-12T14:56:49.335Z,1.33
2017-08-12T14:59:17.460Z,1.47
2017-08-12T15:01:45.024Z,1.40
2017-08-12T15:04:12.868Z,1.47
2017-08-12T15:06:40.360Z,1.13
2017-08-12T15:09:07.881Z,1.37
2017-08-12T15:11:35.370Z,1.53
2017-08-12T15:14:02.845Z,1.70
2017-08-12T15:16:31.080Z,1.33
2017-08-12T15:18:58.714Z,1.67
2017-08-12T15:21:26.196Z,1.90
2017-08-12T15:23:53.672Z,1.20
2017-08-12T15:26:21.131Z,1.53
2017-08-12T15:28:48.617Z,1.30
2017-08-12T15:31:16.840Z,1.40
2017-08-12T15:33:44.303Z,1.23
2017-08-12T15:36:11.767Z,1.90
2017-08-12T15:38:39.241Z,1.47
2017-08-12T15:41:06.701Z,1.57
2017-08-12T15:43:34.184Z,1.80
2017-08-12T15:46:02.429Z,1.70
2017-08-12T15:48:29.890Z,1.80
2017-08-12T15:50:57.360Z,1.27
2017-08-12T15:53:25.594Z,1.70
2017-08-12T15:55:53.060Z,1.37
2017-08-12T15:58:20.676Z,1.30
2017-08-12T16:00:48.179Z,1.40
2017-08-12T16:03:15.868Z,1.33
2017-08-12T16:05:43.329Z,1.60
2017-08-12T16:08:10.887Z,1.43
2017-08-12T16:10:38.373Z,2.10
2017-08-12T16:13:06.620Z,1.60
2017-08-12T16:15:34.142Z,1.20
2017-08-12T16:18:02.523Z,1.87
2017-08-12T16:20:30.229Z,1.53
2017-08-12T16:22:58.485Z,1.37
2017-08-12T16:25:26.024Z,2.00
2017-08-12T16:27:53.608Z,1.93
2017-08-12T16:30:22.393Z,1.87
2017-08-12T16:32:50.165Z,1.97
2017-08-12T16:35:17.627Z,1.33
2017-08-12T16:37:45.231Z,2.07
2017-08-12T16:40:12.715Z,2.00
2017-08-12T16:42:40.187Z,2.00
2017-08-12T16:45:08.852Z,2.00
2017-08-12T16:47:36.368Z,1.50
2017-08-12T16:50:04.619Z,2.03
2017-08-12T16:52:32.176Z,1.80
2017-08-12T16:54:59.688Z,1.97
2017-08-12T16:57:27.483Z,1.60
2017-08-12T16:59:55.065Z,1.90
2017-08-12T17:02:22.538Z,1.73
2017-08-12T17:04:50.013Z,2.20
2017-08-12T17:07:18.532Z,1.50
2017-08-12T17:09:46.019Z,1.80
2017-08-12T17:12:13.485Z,1.70
2017-08-12T17:14:41.059Z,1.83
2017-08-12T17:17:08.626Z,1.43
2017-08-12T17:19:36.092Z,1.80
2017-08-12T17:22:07.270Z,2.20
2017-08-12T17:24:36.349Z,1.90
2017-08-12T17:27:05.433Z,2.03
2017-08-12T17:29:32.976Z,1.63
2017-08-12T17:32:00.856Z,1.50
2017-08-12T17:34:28.371Z,1.60
2017-08-12T17:36:57.245Z,1.20
2017-08-12T17:39:24.716Z,1.47
2017-08-12T17:41:52.216Z,1.47
2017-08-12T17:44:22.400Z,1.80
2017-08-12T17:46:49.872Z,1.27
2017-08-12T17:49:17.352Z,2.03
2017-08-12T17:51:44.860Z,1.10
2017-08-12T17:54:12.348Z,1.67
2017-08-12T17:56:46.204Z,1.67
2017-08-12T18:02:07.806Z,1.60
2017-08-12T18:04:37.072Z,0.93
2017-08-12T18:07:04.557Z,0.90
2017-08-12T18:09:33.033Z,1.23
2017-08-12T18:12:00.500Z,1.10
2017-08-12T18:14:28.168Z,1.20
2017-08-12T18:16:56.424Z,1.33
2017-08-12T18:19:29.385Z,1.20
2017-08-12T18:21:57.387Z,1.20
2017-08-12T18:24:30.668Z,1.40
2017-08-12T18:26:58.380Z,1.57
2017-08-12T18:29:25.848Z,1.60
2017-08-12T18:31:54.079Z,2.13
2017-08-12T18:34:21.565Z,2.53
2017-08-12T18:36:52.610Z,2.40
2017-08-12T18:39:23.660Z,2.90
2017-08-12T18:41:52.319Z,2.97
2017-08-12T18:44:19.787Z,2.70
2017-08-12T18:46:47.265Z,3.20
2017-08-12T18:49:14.769Z,3.20
2017-08-12T18:51:42.223Z,2.87
2017-08-12T18:54:09.770Z,3.00
2017-08-12T18:56:38.484Z,2.87
2017-08-12T18:59:06.003Z,2.40
2017-08-12T19:01:33.530Z,4.00
2017-08-12T19:04:01.011Z,4.13
2017-08-12T19:06:29.240Z,3.70
2017-08-12T19:08:56.754Z,3.80
2017-08-12T19:11:24.216Z,4.73
2017-08-12T19:13:52.450Z,4.67
2017-08-12T19:16:19.907Z,3.77
2017-08-12T19:18:47.364Z,3.63
2017-08-12T19:21:14.841Z,3.40
2017-08-12T19:23:42.302Z,3.13
2017-08-12T19:26:09.774Z,2.63
2017-08-12T19:28:38.000Z,2.30
2017-08-12T19:31:05.472Z,3.03
2017-08-12T19:33:32.945Z,2.60
2017-08-12T19:36:00.453Z,2.67
2017-08-12T19:38:27.923Z,2.77
2017-08-12T19:40:55.877Z,3.50
2017-08-12T19:43:23.331Z,3.40
2017-08-12T19:45:51.667Z,3.13
2017-08-12T19:48:19.131Z,2.70
2017-08-12T19:50:46.648Z,2.67
2017-08-12T19:53:14.104Z,2.60
2017-08-12T19:55:41.586Z,2.80
2017-08-12T19:58:09.039Z,2.90
2017-08-12T20:00:36.517Z,2.97
2017-08-12T20:03:04.139Z,3.30
2017-08-12T20:05:31.609Z,3.73
2017-08-12T20:07:59.072Z,3.97
2017-08-12T20:10:27.333Z,3.87
2017-08-12T20:12:55.844Z,2.83
2017-08-12T20:15:23.328Z,2.30
2017-08-12T20:17:51.571Z,2.60
2017-08-12T20:20:19.090Z,2.80
2017-08-12T20:22:46.563Z,3.00
2017-08-12T20:25:14.236Z,2.40
2017-08-12T20:27:41.710Z,3.17
2017-08-12T20:30:09.176Z,3.73
2017-08-12T20:32:36.641Z,4.60
2017-08-12T20:35:04.121Z,5.67
2017-08-12T20:37:31.641Z,5.87
2017-08-12T20:39:59.109Z,6.00
2017-08-12T20:42:26.595Z,5.80
2017-08-12T20:44:54.833Z,6.23
2017-08-12T20:47:23.472Z,6.10
2017-08-12T20:49:50.949Z,10.73
2017-08-12T20:52:18.508Z,10.27
2017-08-12T20:54:46.460Z,9.00
2017-08-12T20:57:14.533Z,8.67
2017-08-12T20:59:42.531Z,8.13
2017-08-12T21:02:10.574Z,7.67
2017-08-12T21:04:38.699Z,8.60
2017-08-12T21:07:07.417Z,8.23
2017-08-12T21:09:34.952Z,8.27
2017-08-12T21:12:03.266Z,9.17
2017-08-12T21:14:31.522Z,7.43
2017-08-12T21:16:59.009Z,7.80
2017-08-12T21:19:26.483Z,7.43
2017-08-12T21:21:54.507Z,7.13
2017-08-12T21:24:21.986Z,6.80
2017-08-12T21:26:50.219Z,7.50
2017-08-12T21:29:17.705Z,7.53
2017-08-12T21:31:45.217Z,6.73
2017-08-12T21:34:12.712Z,6.67
2017-08-12T21:36:40.244Z,6.30
2017-08-12T21:39:07.775Z,7.43
2017-08-12T21:41:35.252Z,5.70
2017-08-12T21:44:06.535Z,5.50
2017-08-12T21:46:34.008Z,6.60
2017-08-12T21:49:01.484Z,7.20
2017-08-12T21:51:29.718Z,5.37
2017-08-12T21:53:58.412Z,6.60
2017-08-12T21:56:25.923Z,7.47
2017-08-12T21:58:53.394Z,7.10
2017-08-12T22:01:20.867Z,7.73
2017-08-12T22:03:48.377Z,7.30
2017-08-12T22:06:16.756Z,8.47
2017-08-12T22:08:44.974Z,7.93
2017-08-12T22:11:12.512Z,9.50
2017-08-12T22:13:39.972Z,8.37
2017-08-12T22:16:07.484Z,8.60
2017-08-12T22:18:34.940Z,8.47
2017-08-12T22:21:02.413Z,8.43
2017-08-12T22:23:29.875Z,8.30
2017-08-12T22:25:58.108Z,7.50
2017-08-12T22:28:25.575Z,8.27
2017-08-12T22:30:53.051Z,6.57
2017-08-12T22:33:20.521Z,6.90
2017-08-12T22:35:48.017Z,7.47
2017-08-12T22:38:15.484Z,5.87
2017-08-12T22:40:42.960Z,5.70
2017-08-12T22:43:10.452Z,6.20
2017-08-12T22:45:37.915Z,5.57
2017-08-12T22:48:05.412Z,5.53
2017-08-12T22:50:32.930Z,4.80
2017-08-12T22:53:00.434Z,5.10
2017-08-12T22:55:27.912Z,4.70
2017-08-12T22:57:55.382Z,4.90
2017-08-12T23:00:22.849Z,4.73
2017-08-12T23:02:50.328Z,4.77
2017-08-12T23:05:18.567Z,5.03
2017-08-12T23:07:46.032Z,4.67
2017-08-12T23:10:14.424Z,6.10
2017-08-12T23:12:41.895Z,5.73
2017-08-12T23:15:09.352Z,5.77
2017-08-12T23:17:36.884Z,5.83
2017-08-12T23:20:04.782Z,6.00
2017-08-12T23:22:32.252Z,5.87
2017-08-12T23:25:00.775Z,6.47
2017-08-12T23:27:29.211Z,6.83
2017-08-12T23:29:56.668Z,6.47
2017-08-12T23:32:24.943Z,5.37
2017-08-12T23:34:54.352Z,5.00
2017-08-12T23:37:22.592Z,6.10
2017-08-12T23:39:50.055Z,6.10
2017-08-12T23:42:17.554Z,6.77
2017-08-12T23:44:45.783Z,6.30
2017-08-12T23:47:14.216Z,6.30
2017-08-12T23:49:42.212Z,5.77
2017-08-12T23:52:11.492Z,6.10
2017-08-12T23:57:19.123Z,5.20
2017-08-12T23:59:46.869Z,6.17
